createdAt,value
2022-12-09T00:06:59.356Z,100416.63
2022-12-09T00:14:34.711Z,100414.75
2022-12-09T00:22:08.673Z,100426.81
2022-12-09T00:29:44.172Z,100419.63
2022-12-09T00:37:18.603Z,100429.81
2022-12-09T00:44:54.086Z,100426.88
2022-12-09T00:52:28.382Z,100442.38
2022-12-09T01:00:04.061Z,100450.84
2022-12-09T01:07:38.660Z,100458.56
2022-12-09T01:15:14.555Z,100461.94
2022-12-09T01:22:48.481Z,100459.13
2022-12-09T01:30:23.981Z,100443.25
2022-12-09T01:37:58.004Z,100446.38
2022-12-09T01:45:41.378Z,100454.16
2022-12-09T01:53:17.410Z,100461.28
2022-12-09T02:00:52.758Z,100449.16
2022-12-09T02:08:26.627Z,100455.78
2022-12-09T02:16:06.121Z,100454.44
2022-12-09T02:23:43.577Z,100451.66
2022-12-09T02:31:33.366Z,100443.06
2022-12-09T02:39:11.198Z,100433.25
2022-12-09T02:46:46.606Z,100434.22
2022-12-09T02:54:24.560Z,100434.22
2022-12-09T03:02:05.637Z,100434.53
2022-12-09T03:09:46.449Z,100438.00
2022-12-09T03:17:24.294Z,100442.56
2022-12-09T03:25:06.993Z,100433.22
2022-12-09T03:32:43.219Z,100428.13
2022-12-09T03:40:24.314Z,100427.22
2022-12-09T03:47:58.684Z,100433.47
2022-12-09T03:55:40.996Z,100424.69
2022-12-09T04:03:16.209Z,100425.34
2022-12-09T04:10:51.482Z,100422.25
2022-12-09T04:18:25.582Z,100416.09
2022-12-09T04:26:01.251Z,100421.66
2022-12-09T04:33:35.078Z,100415.00
2022-12-09T04:41:11.092Z,100426.53
2022-12-09T04:48:45.237Z,100417.94
2022-12-09T04:56:22.289Z,100429.41
2022-12-09T05:03:56.371Z,100424.47
2022-12-09T05:11:32.186Z,100417.00
2022-12-09T05:19:06.338Z,100406.41
2022-12-09T05:26:41.876Z,100416.16
2022-12-09T05:34:15.958Z,100422.31
2022-12-09T05:41:51.712Z,100429.44
2022-12-09T05:49:26.277Z,100430.41
2022-12-09T05:57:05.288Z,100432.97
2022-12-09T06:04:39.527Z,100426.00
2022-12-09T06:12:15.794Z,100430.28
2022-12-09T06:19:50.077Z,100432.97
2022-12-09T06:27:25.863Z,100435.59
2022-12-09T06:35:00.419Z,100447.25
2022-12-09T06:42:36.306Z,100441.38
2022-12-09T06:50:11.123Z,100448.88
2022-12-09T06:57:46.859Z,100456.69
2022-12-09T07:05:20.792Z,100444.38
2022-12-09T07:12:56.144Z,100458.38
2022-12-09T07:20:30.571Z,100451.44
2022-12-09T07:28:06.751Z,100453.75
2022-12-09T07:35:40.896Z,100455.13
2022-12-09T07:43:16.838Z,100463.78
2022-12-09T07:50:50.844Z,100464.47
2022-12-09T07:58:26.377Z,100459.22
2022-12-09T08:06:00.684Z,100478.28
2022-12-09T08:13:37.274Z,100472.50
2022-12-09T08:21:14.186Z,100467.16
2022-12-09T08:28:50.253Z,100475.38
2022-12-09T08:36:26.408Z,100479.47
2022-12-09T08:51:54.839Z,100487.84
2022-12-09T08:59:30.882Z,100490.09
2022-12-09T09:07:05.544Z,100492.72
2022-12-09T09:14:41.207Z,100503.38
2022-12-09T09:22:15.202Z,100500.91
2022-12-09T09:29:50.972Z,100503.25
2022-12-09T09:37:25.209Z,100494.34
2022-12-09T09:45:04.738Z,100499.28
2022-12-09T09:52:42.774Z,100492.59
2022-12-09T10:00:27.129Z,100492.28
2022-12-09T10:08:17.409Z,100473.75
2022-12-09T10:16:02.743Z,100473.94
2022-12-09T10:23:37.085Z,100470.75
2022-12-09T10:31:14.374Z,100481.50
2022-12-09T10:38:48.883Z,100472.06
2022-12-09T10:46:25.559Z,100473.94
2022-12-09T10:54:02.861Z,100462.25
2022-12-09T11:01:49.941Z,100448.63
2022-12-09T11:09:28.860Z,100447.00
2022-12-09T11:17:17.067Z,100439.00
2022-12-09T11:24:54.824Z,100433.28
2022-12-09T11:32:32.393Z,100418.44
2022-12-09T11:40:07.730Z,100421.75
2022-12-09T11:55:48.451Z,100416.66
2022-12-09T12:03:31.481Z,100418.28
2022-12-09T12:11:14.824Z,100424.56
2022-12-09T12:18:57.007Z,100414.91
2022-12-09T12:26:40.260Z,100401.78
2022-12-09T12:34:26.530Z,100398.63
2022-12-09T12:42:08.933Z,100392.94
2022-12-09T12:50:04.301Z,100385.16
2022-12-09T12:57:46.098Z,100396.59
2022-12-09T13:05:24.115Z,100392.97
2022-12-09T13:13:01.681Z,100371.91
2022-12-09T13:20:47.519Z,100377.84
2022-12-09T13:28:28.737Z,100386.47
2022-12-09T13:36:10.229Z,100391.03
2022-12-09T13:43:44.541Z,100394.59
2022-12-09T13:51:20.576Z,100390.97
2022-12-09T13:59:30.020Z,100397.34
2022-12-09T14:07:17.889Z,100390.13
2022-12-09T14:14:53.005Z,100404.09
2022-12-09T14:22:40.231Z,100402.00
2022-12-09T14:30:48.269Z,100411.56
2022-12-09T14:38:28.703Z,100411.72
2022-12-09T14:46:04.401Z,100394.81
2022-12-09T14:53:39.783Z,100403.09
2022-12-09T15:01:13.838Z,100401.75
2022-12-09T15:08:51.391Z,100409.53
2022-12-09T15:16:27.207Z,100414.69
2022-12-09T15:24:02.741Z,100424.81
2022-12-09T15:31:36.937Z,100431.38
2022-12-09T15:39:19.894Z,100432.84
2022-12-09T15:46:57.580Z,100444.16
2022-12-09T15:54:38.825Z,100430.00
2022-12-09T16:02:21.241Z,100422.75
2022-12-09T16:10:07.021Z,100435.78
2022-12-09T16:17:53.780Z,100447.34
2022-12-09T16:25:35.719Z,100431.78
2022-12-09T16:33:17.703Z,100437.28
2022-12-09T16:41:14.616Z,100439.47
2022-12-09T16:48:50.058Z,100444.63
2022-12-09T16:56:27.337Z,100432.84
2022-12-09T17:04:05.167Z,100419.91
2022-12-09T17:11:47.033Z,100422.38
2022-12-09T17:19:22.847Z,100413.53
2022-12-09T17:27:00.431Z,100422.75
2022-12-09T17:34:34.252Z,100423.91
2022-12-09T17:42:09.613Z,100424.09
2022-12-09T17:49:43.454Z,100424.41
